This is the latest recevied weather packets stored in our database for station/object dl9mfl-6. If no packets are shown the sender has not sent any weather packets the latest 10 day(s).
| Time | Temp. | Humidity | Pressure | Rain* | Wind** | Luminosity | Snow |
|---|---|---|---|---|---|---|---|
| 1777739546 | 25.56° C | 31% | 1017.4 hPa | 0 mm | - | - | - |
| 1777739537 | 25.56° C | 32% | 1017.5 hPa | 0 mm | - | - | - |
| 1777739533 | 25.56° C | 34% | 1017.5 hPa | 0 mm | - | - | - |
| 1777739529 | 25.56° C | 31% | 1017.5 hPa | 0 mm | - | - | - |
| 1777739525 | 23.89° C | 32% | 1015.3 hPa | 0 mm | - | - | - |
| 1777739521 | 25.56° C | 31% | 1017.5 hPa | 0 mm | - | - | - |
| 1777739517 | 25.56° C | 31% | 1017.5 hPa | 0 mm | - | - | - |
| 1777739513 | 23.89° C | 32% | 1015.3 hPa | 0 mm | - | - | - |
| 1777739509 | 24.44° C | 31% | 1015.3 hPa | 0 mm | - | - | - |
| 1777739370 | 25.56° C | 29% | 1017.6 hPa | 0 mm | - | - | - |
| 1777739366 | 25.56° C | 31% | 1017.6 hPa | 0 mm | - | - | - |
| 1777739362 | 25.56° C | 32% | 1017.6 hPa | 0 mm | - | - | - |
| 1777739358 | 25.56° C | 31% | 1017.6 hPa | 0 mm | - | - | - |
| 1777739354 | 25.56° C | 31% | 1017.6 hPa | 0 mm | - | - | - |
| 1777739345 | 24.44° C | 32% | 1015.4 hPa | 0 mm | - | - | - |
| 1777739337 | 25.56° C | 31% | 1017.6 hPa | 0 mm | - | - | - |
| 1777739332 | 25.56° C | 32% | 1017.6 hPa | 0 mm | - | - | - |
| 1777739328 | 25.56° C | 31% | 1017.6 hPa | 0 mm | - | - | - |
| 1777739324 | 25.56° C | 31% | 1017.6 hPa | 0 mm | - | - | - |
| 1777739320 | 25° C | 33% | 1017.8 hPa | 0 mm | - | - | - |
| 1777739312 | 25° C | 33% | 1017.6 hPa | 0 mm | - | - | - |
| 1777739308 | 25° C | 33% | 1017.6 hPa | 0 mm | - | - | - |
| 1777739304 | 25° C | 33% | 1017.8 hPa | 0 mm | - | - | - |
| 1777739299 | 25° C | 33% | 1017.8 hPa | 0 mm | - | - | - |
| 1777739296 | 25° C | 34% | 1017.8 hPa | 0 mm | - | - | - |
* Rain latest hour (hover to see other rain measurements)
** Current wind speed in m/s (hover to see current wind gust speed)